Time;durP1;ratioP1;P1;durP2;ratioP2;P2;SDS_P1;SDS_P2;PMS_P1;PMS_P2;Temp;Humidity;BMP_temperature;BMP_pressure;BME280_temperature;BME280_humidity;BME280_pressure;Samples;Min_cycle;Max_cycle;Signal;HPM_P1;HPM_P2
2023/05/01 00:02:01;;;;;;;;;;;9.40;99.90;;;;;;5062139;28;19917;-77
2023/05/01 00:04:26;;;;;;;;;;;9.40;99.90;;;;;;5037748;28;19917;-77
2023/05/01 00:06:52;;;;;;;;;;;9.40;99.90;;;;;;5028411;28;19939;-77
2023/05/01 00:09:18;;;;;;;;;;;9.40;99.90;;;;;;5062696;28;19931;-77
2023/05/01 00:11:45;;;;;;;;;;;9.30;99.90;;;;;;5056208;28;19923;-77
2023/05/01 00:14:10;;;;;;;;;;;9.30;99.90;;;;;;5057834;28;20365;-77
2023/05/01 00:16:36;;;;;;;;;;;9.40;99.90;;;;;;5051381;28;19926;-78
2023/05/01 00:19:03;;;;;;;;;;;9.40;99.90;;;;;;5066382;28;19989;-77
2023/05/01 00:21:29;;;;;;;;;;;9.30;99.90;;;;;;5069360;28;19969;-77
2023/05/01 00:23:56;;;;;;;;;;;9.30;99.90;;;;;;5066088;28;19916;-76
2023/05/01 00:26:21;;;;;;;;;;;9.30;99.90;;;;;;5082056;28;19917;-77
2023/05/01 00:28:47;;;;;;;;;;;9.30;99.90;;;;;;5046175;28;19924;-77
2023/05/01 00:31:12;;;;;;;;;;;9.30;99.90;;;;;;5044333;28;20376;-77
2023/05/01 00:33:39;;;;;;;;;;;9.40;99.90;;;;;;5046267;28;19949;-78
2023/05/01 00:36:05;;;;;;;;;;;9.30;99.90;;;;;;5082145;28;19924;-78
2023/05/01 00:38:30;;;;;;;;;;;9.30;99.90;;;;;;5048438;28;19917;-78
2023/05/01 00:40:56;;;;;;;;;;;9.30;99.90;;;;;;5044134;28;19917;-78
2023/05/01 00:43:21;;;;;;;;;;;9.30;99.90;;;;;;5048349;28;19999;-78
2023/05/01 00:45:47;;;;;;;;;;;9.30;99.90;;;;;;5060178;28;19946;-77
2023/05/01 00:48:13;;;;;;;;;;;9.30;99.90;;;;;;5080485;28;20308;-76
2023/05/01 00:50:39;;;;;;;;;;;9.30;99.90;;;;;;5050532;28;19923;-77
2023/05/01 00:53:05;;;;;;;;;;;9.30;99.90;;;;;;5065529;28;19979;-76
2023/05/01 00:55:32;;;;;;;;;;;9.30;99.90;;;;;;5050083;28;19928;-78
2023/05/01 00:57:58;;;;;;;;;;;9.30;99.90;;;;;;5077796;28;20379;-77
2023/05/01 01:00:23;;;;;;;;;;;9.20;99.90;;;;;;5032555;28;19922;-77
2023/05/01 01:02:49;;;;;;;;;;;9.30;99.90;;;;;;5048342;28;19916;-77
2023/05/01 01:05:15;;;;;;;;;;;9.20;99.90;;;;;;5045026;28;19925;-77
2023/05/01 01:07:41;;;;;;;;;;;9.20;99.90;;;;;;5060473;28;19923;-77
2023/05/01 01:10:19;;;;;;;;;;;9.10;99.90;;;;;;5026323;28;20337;-78
2023/05/01 01:12:47;;;;;;;;;;;9.10;99.90;;;;;;5050869;28;20354;-77
2023/05/01 01:15:32;;;;;;;;;;;9.10;99.90;;;;;;5047726;28;20369;-77
2023/05/01 01:18:01;;;;;;;;;;;9.10;99.90;;;;;;5047659;28;19921;-78
2023/05/01 01:20:30;;;;;;;;;;;9.10;99.90;;;;;;5047050;28;19916;-78
2023/05/01 01:23:00;;;;;;;;;;;9.10;99.90;;;;;;5035439;28;19916;-78
2023/05/01 01:25:44;;;;;;;;;;;9.00;99.90;;;;;;5080189;28;20377;-78
2023/05/01 01:28:25;;;;;;;;;;;9.10;99.90;;;;;;5063395;28;20384;-78
2023/05/01 01:30:51;;;;;;;;;;;9.00;99.90;;;;;;5051137;28;19919;-78
2023/05/01 01:33:35;;;;;;;;;;;9.00;99.90;;;;;;5057034;28;19925;-78
2023/05/01 01:36:12;;;;;;;;;;;9.00;99.90;;;;;;5052070;28;19916;-78
2023/05/01 01:38:44;;;;;;;;;;;8.90;99.90;;;;;;5078643;28;19970;-77
2023/05/01 01:41:29;;;;;;;;;;;8.90;99.90;;;;;;5064548;28;19916;-77
2023/05/01 01:44:00;;;;;;;;;;;8.90;99.90;;;;;;5033457;28;19916;-78
2023/05/01 01:46:26;;;;;;;;;;;8.90;99.90;;;;;;5049955;28;20007;-77
2023/05/01 01:48:53;;;;;;;;;;;8.90;99.90;;;;;;5045107;28;19966;-77
2023/05/01 01:51:20;;;;;;;;;;;8.90;99.90;;;;;;5053621;28;19917;-77
2023/05/01 01:53:49;;;;;;;;;;;8.80;99.90;;;;;;5034735;28;20433;-77
2023/05/01 01:56:16;;;;;;;;;;;8.80;99.90;;;;;;5047717;28;19924;-77
2023/05/01 01:58:43;;;;;;;;;;;8.80;99.90;;;;;;5060195;28;19943;-77
2023/05/01 02:01:09;;;;;;;;;;;8.80;99.90;;;;;;5059581;28;19921;-77
2023/05/01 02:03:35;;;;;;;;;;;8.80;99.90;;;;;;5060455;28;20339;-77
2023/05/01 02:06:03;;;;;;;;;;;8.80;99.90;;;;;;5084370;28;19916;-77
2023/05/01 02:08:30;;;;;;;;;;;8.70;99.90;;;;;;5041043;28;19923;-78
2023/05/01 02:10:58;;;;;;;;;;;8.80;99.90;;;;;;5031459;28;20357;-78
2023/05/01 02:13:26;;;;;;;;;;;8.80;99.90;;;;;;5051337;28;19915;-78
2023/05/01 02:15:52;;;;;;;;;;;8.70;99.90;;;;;;5059313;28;19974;-78
2023/05/01 02:18:19;;;;;;;;;;;8.70;99.90;;;;;;5032437;28;19921;-78
2023/05/01 02:20:45;;;;;;;;;;;9.00;99.90;;;;;;5064189;28;20361;-78
2023/05/01 02:23:11;;;;;;;;;;;8.70;99.90;;;;;;5048873;28;20014;-78
2023/05/01 02:25:38;;;;;;;;;;;8.70;99.90;;;;;;5024668;28;19932;-78
2023/05/01 02:28:09;;;;;;;;;;;8.60;99.90;;;;;;5065431;28;19916;-77
2023/05/01 02:30:35;;;;;;;;;;;8.60;99.90;;;;;;5036837;28;19964;-78
2023/05/01 02:33:01;;;;;;;;;;;8.60;99.90;;;;;;5058987;28;19990;-78
2023/05/01 02:35:26;;;;;;;;;;;8.60;99.90;;;;;;5053957;28;20050;-77
2023/05/01 02:37:52;;;;;;;;;;;8.50;99.90;;;;;;5038195;28;19928;-78
2023/05/01 02:40:17;;;;;;;;;;;8.50;99.90;;;;;;5065044;28;20913;-78
2023/05/01 02:42:44;;;;;;;;;;;8.50;99.90;;;;;;5058130;28;19923;-77
2023/05/01 02:45:16;;;;;;;;;;;8.50;99.90;;;;;;5064299;28;19999;-77
2023/05/01 02:47:43;;;;;;;;;;;8.40;99.90;;;;;;5058749;28;20394;-77
2023/05/01 02:50:08;;;;;;;;;;;8.50;99.90;;;;;;5052513;28;19966;-78
2023/05/01 02:52:35;;;;;;;;;;;8.40;99.90;;;;;;5040184;28;19920;-77
2023/05/01 02:55:01;;;;;;;;;;;8.40;99.90;;;;;;5045670;28;19923;-77
2023/05/01 02:57:27;;;;;;;;;;;8.30;99.90;;;;;;5086454;28;20363;-76
2023/05/01 02:59:52;;;;;;;;;;;8.30;99.90;;;;;;5048954;28;19916;-77
2023/05/01 03:02:18;;;;;;;;;;;8.30;99.90;;;;;;5054028;28;19923;-78
2023/05/01 03:04:43;;;;;;;;;;;8.40;99.90;;;;;;5050445;28;19970;-77
2023/05/01 03:07:09;;;;;;;;;;;8.30;99.90;;;;;;5075622;28;19968;-77
2023/05/01 03:09:35;;;;;;;;;;;8.30;99.90;;;;;;5043153;28;20290;-76
2023/05/01 03:12:01;;;;;;;;;;;8.30;99.90;;;;;;5050374;28;19920;-77
2023/05/01 03:14:28;;;;;;;;;;;8.20;99.90;;;;;;5047951;28;19920;-77
2023/05/01 03:16:54;;;;;;;;;;;8.20;99.90;;;;;;5067183;28;19920;-78
2023/05/01 03:19:19;;;;;;;;;;;8.10;99.90;;;;;;5062998;28;19931;-77
2023/05/01 03:21:45;;;;;;;;;;;8.20;99.90;;;;;;5041997;28;20321;-78
2023/05/01 03:24:10;;;;;;;;;;;8.10;99.90;;;;;;5045444;28;19920;-78
2023/05/01 03:26:36;;;;;;;;;;;8.10;99.90;;;;;;5057590;28;19932;-78
2023/05/01 03:29:02;;;;;;;;;;;8.00;99.90;;;;;;5080288;28;19931;-77
2023/05/01 03:31:28;;;;;;;;;;;8.10;99.90;;;;;;5065195;28;19999;-77
2023/05/01 03:33:53;;;;;;;;;;;8.00;99.90;;;;;;5068206;28;19916;-77
2023/05/01 03:36:20;;;;;;;;;;;8.00;99.90;;;;;;5062125;28;19925;-76
2023/05/01 03:38:46;;;;;;;;;;;7.80;99.90;;;;;;5041374;28;20372;-77
2023/05/01 03:41:12;;;;;;;;;;;7.90;99.90;;;;;;5069164;28;19929;-78
2023/05/01 03:43:37;;;;;;;;;;;7.90;99.90;;;;;;5056972;28;19960;-77
2023/05/01 03:46:03;;;;;;;;;;;7.80;99.90;;;;;;5058254;28;19967;-78
2023/05/01 03:48:28;;;;;;;;;;;7.90;99.90;;;;;;5060952;28;19916;-76
2023/05/01 03:50:54;;;;;;;;;;;7.80;99.90;;;;;;5077391;28;19923;-76
2023/05/01 03:53:19;;;;;;;;;;;7.80;99.90;;;;;;5076785;28;19924;-76
2023/05/01 03:55:45;;;;;;;;;;;7.80;99.90;;;;;;5066747;28;19916;-78
2023/05/01 03:58:11;;;;;;;;;;;7.70;99.90;;;;;;5053181;28;19924;-77
2023/05/01 04:00:37;;;;;;;;;;;7.70;99.90;;;;;;5063831;28;19917;-78
2023/05/01 04:03:03;;;;;;;;;;;7.70;99.90;;;;;;5066909;28;20006;-78
2023/05/01 04:05:28;;;;;;;;;;;7.70;99.90;;;;;;5063894;28;19916;-78
2023/05/01 04:07:54;;;;;;;;;;;7.70;99.90;;;;;;5031094;28;19923;-77
2023/05/01 04:10:20;;;;;;;;;;;7.80;99.90;;;;;;5063072;28;19938;-78
2023/05/01 04:12:45;;;;;;;;;;;7.70;99.90;;;;;;5057180;28;19922;-77
2023/05/01 04:15:11;;;;;;;;;;;7.70;99.90;;;;;;5047909;28;19969;-78
2023/05/01 04:17:36;;;;;;;;;;;7.70;99.90;;;;;;5081675;28;20320;-76
2023/05/01 04:20:04;;;;;;;;;;;7.60;99.90;;;;;;5042022;28;19963;-76
2023/05/01 04:22:30;;;;;;;;;;;7.60;99.90;;;;;;5079697;28;19999;-77
2023/05/01 04:24:56;;;;;;;;;;;7.60;99.90;;;;;;5030298;28;19929;-77
2023/05/01 04:27:21;;;;;;;;;;;7.60;99.90;;;;;;5028973;28;19969;-78
2023/05/01 04:29:47;;;;;;;;;;;7.60;99.90;;;;;;5048100;28;20424;-77
2023/05/01 04:32:13;;;;;;;;;;;7.60;99.90;;;;;;5039618;28;19971;-77
2023/05/01 04:34:38;;;;;;;;;;;7.60;99.90;;;;;;5036032;28;19923;-77
2023/05/01 04:37:06;;;;;;;;;;;7.60;99.90;;;;;;5043549;28;19929;-77
2023/05/01 04:39:32;;;;;;;;;;;7.60;99.90;;;;;;5036019;28;20015;-77
2023/05/01 04:41:57;;;;;;;;;;;7.60;99.90;;;;;;5022469;28;20024;-77
2023/05/01 04:44:23;;;;;;;;;;;7.60;99.90;;;;;;5031679;28;19917;-76
2023/05/01 04:46:48;;;;;;;;;;;7.70;99.90;;;;;;5050556;28;19920;-76
2023/05/01 04:49:14;;;;;;;;;;;7.70;99.90;;;;;;5034866;28;19916;-79
2023/05/01 04:51:40;;;;;;;;;;;7.70;99.90;;;;;;5067062;28;19924;-77
2023/05/01 04:54:05;;;;;;;;;;;7.70;99.90;;;;;;5049272;28;19916;-77
2023/05/01 04:56:31;;;;;;;;;;;7.80;99.90;;;;;;5047019;28;19973;-77
2023/05/01 04:58:57;;;;;;;;;;;7.80;99.90;;;;;;5042311;28;19987;-77
2023/05/01 05:01:22;;;;;;;;;;;7.90;99.90;;;;;;5043299;28;20074;-77
2023/05/01 05:03:48;;;;;;;;;;;7.90;99.90;;;;;;5044776;28;19920;-77
2023/05/01 05:06:13;;;;;;;;;;;8.00;99.90;;;;;;5045071;28;20285;-77
2023/05/01 05:08:39;;;;;;;;;;;8.10;99.90;;;;;;5040441;28;19916;-77
2023/05/01 05:11:04;;;;;;;;;;;8.20;99.90;;;;;;5040955;28;19917;-77
2023/05/01 05:13:30;;;;;;;;;;;8.20;99.90;;;;;;5055106;28;19959;-78
2023/05/01 05:15:56;;;;;;;;;;;8.20;99.90;;;;;;5038999;28;19963;-77
2023/05/01 05:18:21;;;;;;;;;;;8.30;99.90;;;;;;5041089;28;19974;-77
2023/05/01 05:20:47;;;;;;;;;;;8.30;99.90;;;;;;5047180;28;20378;-77
2023/05/01 05:23:12;;;;;;;;;;;8.40;99.90;;;;;;5040316;28;19963;-77
2023/05/01 05:25:38;;;;;;;;;;;8.40;99.90;;;;;;5020534;28;19924;-77
2023/05/01 05:28:04;;;;;;;;;;;8.50;99.90;;;;;;5035039;28;19967;-77
2023/05/01 05:30:29;;;;;;;;;;;8.60;99.90;;;;;;5005554;28;20275;-77
2023/05/01 05:32:55;;;;;;;;;;;8.60;99.90;;;;;;5001197;28;19917;-76
2023/05/01 05:35:21;;;;;;;;;;;8.70;99.90;;;;;;5020429;28;20717;-77
2023/05/01 05:37:46;;;;;;;;;;;8.80;99.90;;;;;;5028602;28;19921;-77
2023/05/01 05:40:12;;;;;;;;;;;8.90;99.90;;;;;;5033831;28;20296;-77
2023/05/01 05:42:38;;;;;;;;;;;8.90;99.90;;;;;;5056666;28;20466;-77
2023/05/01 05:45:04;;;;;;;;;;;8.90;99.90;;;;;;5032573;28;20014;-77
2023/05/01 05:47:30;;;;;;;;;;;9.00;99.90;;;;;;5035164;28;19917;-78
2023/05/01 05:49:56;;;;;;;;;;;9.10;99.90;;;;;;5034416;28;19932;-78
2023/05/01 05:52:21;;;;;;;;;;;9.00;99.90;;;;;;5028682;28;19916;-78
2023/05/01 05:54:47;;;;;;;;;;;9.10;99.90;;;;;;5005214;28;20015;-78
2023/05/01 05:57:13;;;;;;;;;;;9.10;99.90;;;;;;5024552;28;19984;-77
2023/05/01 05:59:38;;;;;;;;;;;9.10;99.90;;;;;;5027425;28;19921;-78
2023/05/01 06:02:04;;;;;;;;;;;9.20;99.90;;;;;;5019738;28;19955;-77
2023/05/01 06:04:29;;;;;;;;;;;9.30;99.90;;;;;;5026732;28;19924;-76
2023/05/01 06:06:56;;;;;;;;;;;9.40;99.90;;;;;;5029724;28;20370;-76
2023/05/01 06:09:21;;;;;;;;;;;9.50;99.90;;;;;;5052128;28;20385;-77
2023/05/01 06:11:47;;;;;;;;;;;9.60;99.90;;;;;;5033888;28;19932;-77
2023/05/01 06:14:13;;;;;;;;;;;9.70;99.90;;;;;;5009589;28;19917;-78
2023/05/01 06:16:39;;;;;;;;;;;9.80;99.90;;;;;;5028075;28;19921;-78
2023/05/01 06:19:05;;;;;;;;;;;9.90;99.90;;;;;;5025231;28;19917;-76
2023/05/01 06:21:33;;;;;;;;;;;10.10;99.90;;;;;;5020091;28;20359;-76
2023/05/01 06:23:59;;;;;;;;;;;10.40;99.90;;;;;;5022177;28;20070;-77
2023/05/01 06:26:25;;;;;;;;;;;10.50;99.90;;;;;;5024899;28;20401;-77
2023/05/01 06:28:50;;;;;;;;;;;10.60;99.90;;;;;;5010221;28;19916;-77
2023/05/01 06:31:16;;;;;;;;;;;10.80;99.90;;;;;;5022394;28;20286;-76
2023/05/01 06:33:41;;;;;;;;;;;10.80;99.90;;;;;;5049079;28;19924;-76
2023/05/01 06:36:07;;;;;;;;;;;11.00;99.90;;;;;;5035940;28;19963;-76
2023/05/01 06:38:33;;;;;;;;;;;11.00;99.90;;;;;;5021772;28;19916;-76
2023/05/01 06:40:58;;;;;;;;;;;11.10;99.90;;;;;;5044235;28;19916;-76
2023/05/01 06:43:29;;;;;;;;;;;11.20;99.90;;;;;;5046676;28;19920;-76
2023/05/01 06:45:55;;;;;;;;;;;11.40;99.90;;;;;;5048682;28;19920;-77
2023/05/01 06:48:21;;;;;;;;;;;11.60;99.90;;;;;;5036879;28;19930;-77
2023/05/01 06:50:46;;;;;;;;;;;11.80;99.90;;;;;;5053083;28;20289;-78
2023/05/01 06:53:12;;;;;;;;;;;12.10;99.90;;;;;;5038128;28;19921;-75
2023/05/01 06:55:37;;;;;;;;;;;12.30;99.90;;;;;;5023214;28;19917;-77
2023/05/01 06:58:04;;;;;;;;;;;12.50;99.90;;;;;;5034555;28;19973;-76
2023/05/01 07:00:29;;;;;;;;;;;12.80;99.90;;;;;;5024818;28;20004;-75
2023/05/01 07:02:55;;;;;;;;;;;12.80;99.90;;;;;;5053123;28;19974;-76
2023/05/01 07:05:21;;;;;;;;;;;12.90;99.90;;;;;;5053708;28;19917;-76
2023/05/01 07:07:46;;;;;;;;;;;13.10;99.90;;;;;;5036142;28;19999;-76
2023/05/01 07:10:12;;;;;;;;;;;13.40;99.90;;;;;;5053176;28;20009;-77
2023/05/01 07:12:38;;;;;;;;;;;13.50;99.90;;;;;;5050363;28;19916;-76
2023/05/01 07:15:03;;;;;;;;;;;13.40;99.90;;;;;;5052066;28;19916;-77
2023/05/01 07:17:29;;;;;;;;;;;13.60;99.90;;;;;;5033188;28;19931;-77
2023/05/01 07:19:54;;;;;;;;;;;13.70;99.90;;;;;;5032688;28;19929;-77
2023/05/01 07:22:20;;;;;;;;;;;13.80;99.90;;;;;;5033676;28;19920;-77
2023/05/01 07:24:46;;;;;;;;;;;13.80;99.90;;;;;;5019928;28;19920;-77
2023/05/01 07:27:12;;;;;;;;;;;13.90;99.90;;;;;;5052862;28;19970;-77
2023/05/01 07:29:38;;;;;;;;;;;14.00;99.90;;;;;;5052733;28;19916;-77
2023/05/01 07:32:05;;;;;;;;;;;14.30;99.90;;;;;;5048158;28;19920;-77
2023/05/01 07:34:31;;;;;;;;;;;14.60;99.90;;;;;;5052709;28;19923;-77
2023/05/01 07:36:56;;;;;;;;;;;15.10;99.90;;;;;;5019076;28;20385;-77
2023/05/01 07:39:22;;;;;;;;;;;15.30;99.90;;;;;;5053072;28;20434;-77
2023/05/01 07:41:47;;;;;;;;;;;15.60;99.90;;;;;;5033163;28;19956;-77
2023/05/01 07:44:13;;;;;;;;;;;15.90;99.90;;;;;;5043231;28;19924;-77
2023/05/01 07:46:38;;;;;;;;;;;16.00;99.90;;;;;;5052722;28;19963;-77
2023/05/01 07:49:04;;;;;;;;;;;16.20;99.90;;;;;;5035713;28;19917;-77
2023/05/01 07:51:30;;;;;;;;;;;16.60;99.90;;;;;;5035910;28;20444;-77
2023/05/01 07:53:56;;;;;;;;;;;16.80;99.90;;;;;;5060524;28;19959;-77
2023/05/01 07:56:21;;;;;;;;;;;17.10;99.90;;;;;;5063351;28;20271;-77
2023/05/01 07:58:47;;;;;;;;;;;17.40;99.90;;;;;;5041861;28;19971;-78
2023/05/01 08:01:13;;;;;;;;;;;17.80;99.90;;;;;;5048628;28;19916;-77
2023/05/01 08:03:38;;;;;;;;;;;17.90;99.90;;;;;;5038396;28;19919;-77
2023/05/01 08:06:04;;;;;;;;;;;17.80;99.90;;;;;;5030877;28;19924;-77
2023/05/01 08:08:30;;;;;;;;;;;17.50;99.90;;;;;;5048898;28;19923;-78
2023/05/01 08:10:55;;;;;;;;;;;17.40;99.90;;;;;;5047297;28;19917;-77
2023/05/01 08:13:21;;;;;;;;;;;17.40;99.90;;;;;;5068047;28;20438;-78
2023/05/01 08:15:47;;;;;;;;;;;17.60;99.90;;;;;;5040241;28;19955;-77
2023/05/01 08:18:18;;;;;;;;;;;17.60;99.90;;;;;;5033628;28;20377;-78
2023/05/01 08:20:45;;;;;;;;;;;17.50;99.90;;;;;;5067689;28;20029;-77
2023/05/01 08:23:11;;;;;;;;;;;17.40;99.90;;;;;;5068020;28;19972;-78
2023/05/01 08:25:36;;;;;;;;;;;17.70;99.90;;;;;;5068720;28;19999;-77
2023/05/01 08:28:02;;;;;;;;;;;18.20;99.90;;;;;;5039302;28;19927;-77
2023/05/01 08:30:28;;;;;;;;;;;18.60;99.90;;;;;;5071489;28;19916;-77
2023/05/01 08:32:53;;;;;;;;;;;18.90;98.20;;;;;;5055521;28;20270;-78
2023/05/01 08:35:19;;;;;;;;;;;19.00;95.80;;;;;;5049733;28;20301;-77
2023/05/01 08:37:45;;;;;;;;;;;19.20;94.80;;;;;;5060002;28;19927;-77
2023/05/01 08:40:10;;;;;;;;;;;19.50;96.30;;;;;;5070794;28;19916;-77
2023/05/01 08:42:37;;;;;;;;;;;20.00;95.60;;;;;;5059630;28;20369;-77
2023/05/01 08:45:06;;;;;;;;;;;20.00;95.50;;;;;;5044160;28;20366;-77
2023/05/01 08:47:35;;;;;;;;;;;20.00;94.30;;;;;;5089561;28;20417;-77
2023/05/01 08:50:02;;;;;;;;;;;20.00;92.40;;;;;;5055734;28;20284;-77
2023/05/01 08:52:27;;;;;;;;;;;20.20;93.10;;;;;;5055634;28;19939;-77
2023/05/01 08:54:55;;;;;;;;;;;20.20;91.00;;;;;;5055314;28;19916;-77
2023/05/01 08:57:21;;;;;;;;;;;20.10;91.10;;;;;;5065171;28;19921;-77
2023/05/01 08:59:47;;;;;;;;;;;20.20;91.50;;;;;;5047028;28;20289;-77
2023/05/01 09:02:14;;;;;;;;;;;20.20;91.80;;;;;;5052179;28;19927;-77
2023/05/01 09:04:40;;;;;;;;;;;20.00;92.30;;;;;;5086639;28;20375;-77
2023/05/01 09:07:06;;;;;;;;;;;20.10;92.40;;;;;;5053159;28;19921;-77
2023/05/01 09:09:32;;;;;;;;;;;20.60;92.40;;;;;;5057770;28;20357;-77
2023/05/01 09:12:04;;;;;;;;;;;20.80;92.00;;;;;;5050205;28;19943;-77
2023/05/01 09:14:30;;;;;;;;;;;20.90;91.60;;;;;;5080926;28;20286;-77
2023/05/01 09:16:56;;;;;;;;;;;21.00;91.80;;;;;;5051790;28;19920;-77
2023/05/01 09:19:21;;;;;;;;;;;21.30;92.00;;;;;;5057891;28;19939;-78
2023/05/01 09:21:47;;;;;;;;;;;21.70;92.90;;;;;;5025040;28;20349;-78
2023/05/01 09:24:12;;;;;;;;;;;21.60;91.00;;;;;;5074727;28;19928;-77
2023/05/01 09:26:40;;;;;;;;;;;21.70;91.60;;;;;;5035271;28;19917;-76
2023/05/01 09:29:06;;;;;;;;;;;21.70;91.30;;;;;;5085427;28;20303;-77
2023/05/01 09:31:32;;;;;;;;;;;21.70;91.40;;;;;;5052572;28;20344;-76
2023/05/01 09:33:58;;;;;;;;;;;22.10;90.50;;;;;;5080168;28;19916;-77
2023/05/01 09:36:25;;;;;;;;;;;22.20;90.90;;;;;;5030390;28;20361;-78
2023/05/01 09:38:51;;;;;;;;;;;22.50;91.30;;;;;;5038888;28;20002;-77
2023/05/01 09:41:17;;;;;;;;;;;22.70;90.80;;;;;;5070222;28;19978;-78
2023/05/01 09:43:48;;;;;;;;;;;22.90;90.90;;;;;;5075322;28;19939;-78
2023/05/01 09:46:14;;;;;;;;;;;22.70;91.20;;;;;;5067297;28;20316;-77
2023/05/01 09:48:39;;;;;;;;;;;22.70;90.60;;;;;;5077608;28;19931;-78
2023/05/01 09:51:25;;;;;;;;;;;22.90;90.10;;;;;;5044195;28;19979;-77
2023/05/01 09:53:51;;;;;;;;;;;23.10;90.20;;;;;;5034156;28;19970;-77
2023/05/01 09:56:17;;;;;;;;;;;23.60;90.30;;;;;;5050565;28;20375;-77
2023/05/01 09:58:43;;;;;;;;;;;23.70;90.00;;;;;;5074997;28;20003;-77
2023/05/01 10:01:09;;;;;;;;;;;23.90;90.50;;;;;;5024726;28;20031;-77
2023/05/01 10:03:34;;;;;;;;;;;24.20;89.50;;;;;;5084821;28;19921;-78
2023/05/01 10:06:02;;;;;;;;;;;24.20;88.10;;;;;;5074987;28;19917;-78
2023/05/01 10:08:48;;;;;;;;;;;24.10;89.10;;;;;;5019229;28;19920;-78
2023/05/01 10:11:14;;;;;;;;;;;24.40;89.50;;;;;;5057520;28;19999;-78
2023/05/01 10:13:40;;;;;;;;;;;24.40;87.80;;;;;;5059990;28;19971;-76
2023/05/01 10:16:07;;;;;;;;;;;24.40;86.60;;;;;;5044812;28;21252;-76
2023/05/01 10:18:36;;;;;;;;;;;24.30;86.80;;;;;;5050575;28;19925;-77
2023/05/01 10:21:03;;;;;;;;;;;24.20;85.50;;;;;;5085687;28;19920;-77
2023/05/01 10:23:28;;;;;;;;;;;24.50;87.20;;;;;;5036146;28;20007;-78
2023/05/01 10:25:55;;;;;;;;;;;24.90;86.60;;;;;;5045087;28;20360;-76
2023/05/01 10:28:20;;;;;;;;;;;24.80;86.90;;;;;;5074172;28;19962;-77
2023/05/01 10:30:47;;;;;;;;;;;24.70;87.30;;;;;;5057653;28;19962;-76
2023/05/01 10:33:13;;;;;;;;;;;25.10;85.30;;;;;;5034982;28;19920;-77
2023/05/01 10:35:41;;;;;;;;;;;25.30;86.10;;;;;;5049380;28;19923;-78
2023/05/01 10:38:09;;;;;;;;;;;25.10;85.80;;;;;;5051853;28;19924;-78
2023/05/01 10:40:44;;;;;;;;;;;25.00;85.30;;;;;;5054046;28;19923;-78
2023/05/01 10:43:17;;;;;;;;;;;25.10;84.10;;;;;;5064311;28;19916;-77
2023/05/01 10:45:43;;;;;;;;;;;25.20;84.70;;;;;;5070510;28;19920;-78
2023/05/01 10:48:09;;;;;;;;;;;25.30;85.10;;;;;;5086318;28;20357;-78
2023/05/01 10:50:35;;;;;;;;;;;25.20;83.90;;;;;;5043393;28;19923;-77
2023/05/01 10:53:10;;;;;;;;;;;25.20;84.20;;;;;;5083478;28;19963;-78
2023/05/01 10:55:37;;;;;;;;;;;25.10;84.70;;;;;;5085156;28;19938;-77
2023/05/01 10:58:03;;;;;;;;;;;25.20;86.20;;;;;;5065362;28;19924;-78
2023/05/01 11:00:29;;;;;;;;;;;25.00;86.10;;;;;;5072821;28;19939;-77
2023/05/01 11:03:13;;;;;;;;;;;24.80;84.70;;;;;;5072941;28;19923;-78
2023/05/01 11:05:57;;;;;;;;;;;25.00;86.50;;;;;;5045567;28;19920;-78
2023/05/01 11:08:33;;;;;;;;;;;25.00;85.90;;;;;;5057179;28;20270;-77
2023/05/01 11:11:17;;;;;;;;;;;24.80;84.60;;;;;;5073178;28;20010;-77
2023/05/01 11:13:56;;;;;;;;;;;24.70;86.00;;;;;;5052386;28;20007;-77
2023/05/01 11:16:40;;;;;;;;;;;24.70;86.00;;;;;;5065333;28;19999;-76
2023/05/01 11:19:08;;;;;;;;;;;24.80;86.00;;;;;;5049644;28;19916;-77
2023/05/01 11:21:35;;;;;;;;;;;25.10;87.10;;;;;;5083285;28;19917;-76
2023/05/01 11:24:03;;;;;;;;;;;25.10;86.90;;;;;;5076456;28;19916;-78
2023/05/01 11:26:30;;;;;;;;;;;25.30;89.00;;;;;;5057543;28;19927;-78
2023/05/01 11:29:00;;;;;;;;;;;25.30;88.10;;;;;;5073257;28;19920;-77
2023/05/01 11:31:26;;;;;;;;;;;25.30;87.20;;;;;;5038381;28;19967;-76
2023/05/01 11:33:56;;;;;;;;;;;25.30;88.60;;;;;;5086423;28;19920;-76
2023/05/01 11:36:21;;;;;;;;;;;25.40;88.80;;;;;;5062407;28;19943;-76
2023/05/01 11:38:51;;;;;;;;;;;25.70;87.50;;;;;;5058618;28;19964;-77
2023/05/01 11:41:20;;;;;;;;;;;25.60;85.70;;;;;;5048819;28;20401;-77
2023/05/01 11:43:49;;;;;;;;;;;25.50;85.40;;;;;;5050898;28;20288;-76
2023/05/01 11:46:21;;;;;;;;;;;25.30;85.30;;;;;;5069834;28;19916;-77
2023/05/01 11:48:48;;;;;;;;;;;24.90;85.90;;;;;;5052591;28;20054;-78
2023/05/01 11:51:14;;;;;;;;;;;25.00;85.40;;;;;;5068694;28;20349;-76
2023/05/01 11:53:40;;;;;;;;;;;24.90;85.10;;;;;;5047281;28;19994;-77
2023/05/01 11:56:17;;;;;;;;;;;24.80;85.40;;;;;;5086069;28;19916;-77
2023/05/01 11:58:43;;;;;;;;;;;24.80;85.60;;;;;;5049724;28;19924;-77
2023/05/01 12:01:10;;;;;;;;;;;24.60;84.30;;;;;;5073091;28;19916;-76
2023/05/01 12:03:40;;;;;;;;;;;24.70;86.10;;;;;;5071914;28;19916;-78
2023/05/01 12:06:05;;;;;;;;;;;24.50;84.70;;;;;;5047620;28;19915;-78
2023/05/01 12:08:31;;;;;;;;;;;24.30;85.10;;;;;;5062844;28;19969;-77
2023/05/01 12:10:56;;;;;;;;;;;24.30;85.30;;;;;;5059772;28;20003;-76
2023/05/01 12:13:23;;;;;;;;;;;24.20;85.70;;;;;;5076189;28;19942;-76
2023/05/01 12:15:50;;;;;;;;;;;24.20;85.40;;;;;;5055520;28;20405;-77
2023/05/01 12:18:16;;;;;;;;;;;24.30;85.20;;;;;;5039930;28;19971;-77
2023/05/01 12:20:43;;;;;;;;;;;24.70;86.60;;;;;;5063826;28;19916;-77
2023/05/01 12:23:13;;;;;;;;;;;24.90;86.80;;;;;;5055355;28;20366;-77
2023/05/01 12:25:39;;;;;;;;;;;25.00;85.50;;;;;;5073959;28;19999;-76
2023/05/01 12:28:09;;;;;;;;;;;24.50;86.50;;;;;;5038738;28;19921;-77
2023/05/01 12:30:34;;;;;;;;;;;24.30;86.00;;;;;;5056325;28;19916;-77
2023/05/01 12:33:06;;;;;;;;;;;23.80;86.50;;;;;;5063670;28;19977;-77
2023/05/01 12:35:32;;;;;;;;;;;23.60;87.10;;;;;;5061475;28;20021;-77
2023/05/01 12:37:58;;;;;;;;;;;23.40;86.50;;;;;;5059822;28;20043;-77
2023/05/01 12:40:24;;;;;;;;;;;23.60;87.20;;;;;;5051845;28;19974;-78
2023/05/01 12:42:54;;;;;;;;;;;23.70;87.90;;;;;;5039791;28;19924;-77
2023/05/01 12:45:20;;;;;;;;;;;23.90;88.90;;;;;;5070878;28;19939;-77
2023/05/01 12:47:45;;;;;;;;;;;23.90;86.90;;;;;;5053613;28;19917;-77
2023/05/01 12:50:11;;;;;;;;;;;23.90;87.90;;;;;;5062411;28;19916;-77
2023/05/01 12:52:37;;;;;;;;;;;23.50;88.90;;;;;;5041810;28;19938;-77
2023/05/01 12:55:04;;;;;;;;;;;23.30;87.60;;;;;;5039525;28;20364;-77
2023/05/01 12:57:30;;;;;;;;;;;23.30;88.30;;;;;;5067805;28;19959;-78
2023/05/01 13:00:03;;;;;;;;;;;23.30;88.50;;;;;;5066461;28;19959;-77
2023/05/01 13:02:30;;;;;;;;;;;23.20;88.80;;;;;;5052355;28;19916;-76
2023/05/01 13:05:06;;;;;;;;;;;23.20;89.40;;;;;;5055342;28;20389;-76
2023/05/01 13:07:32;;;;;;;;;;;22.90;88.80;;;;;;5050466;28;19955;-77
2023/05/01 13:09:58;;;;;;;;;;;22.60;88.90;;;;;;5035704;28;19924;-77
2023/05/01 13:12:25;;;;;;;;;;;22.70;89.10;;;;;;5059189;28;20370;-76
2023/05/01 13:14:51;;;;;;;;;;;23.00;89.90;;;;;;5072173;28;20030;-76
2023/05/01 13:17:26;;;;;;;;;;;22.90;89.50;;;;;;5071504;28;19970;-77
2023/05/01 13:19:53;;;;;;;;;;;22.70;89.30;;;;;;5071974;28;20018;-76
2023/05/01 13:22:27;;;;;;;;;;;22.90;90.10;;;;;;5064183;28;20266;-76
2023/05/01 13:24:53;;;;;;;;;;;22.90;90.40;;;;;;5054177;28;19928;-78
2023/05/01 13:27:20;;;;;;;;;;;23.00;90.30;;;;;;5054391;28;19989;-76
2023/05/01 13:29:50;;;;;;;;;;;22.90;90.10;;;;;;5063349;28;20401;-76
2023/05/01 13:32:16;;;;;;;;;;;22.50;90.00;;;;;;5054273;28;20049;-77
2023/05/01 13:34:42;;;;;;;;;;;22.40;90.40;;;;;;5071684;28;20002;-77
2023/05/01 13:37:09;;;;;;;;;;;22.20;90.90;;;;;;5061781;28;20446;-77
2023/05/01 13:39:35;;;;;;;;;;;22.10;90.80;;;;;;5059011;28;19921;-77
2023/05/01 13:42:02;;;;;;;;;;;21.80;90.90;;;;;;5038665;28;19923;-76
2023/05/01 13:44:28;;;;;;;;;;;21.90;91.60;;;;;;5064148;28;20007;-77
2023/05/01 13:46:53;;;;;;;;;;;21.60;91.20;;;;;;5051967;28;20022;-77
2023/05/01 13:49:20;;;;;;;;;;;21.60;91.70;;;;;;5050928;28;19924;-78
2023/05/01 13:51:47;;;;;;;;;;;21.70;92.00;;;;;;5053624;28;19978;-78
2023/05/01 13:54:14;;;;;;;;;;;21.40;91.60;;;;;;5069233;28;19916;-78
2023/05/01 13:56:40;;;;;;;;;;;21.30;91.90;;;;;;5071233;28;20039;-78
2023/05/01 13:59:06;;;;;;;;;;;21.00;92.10;;;;;;5063760;28;20351;-78
2023/05/01 14:01:35;;;;;;;;;;;20.80;92.00;;;;;;5052570;28;19916;-77
2023/05/01 14:04:03;;;;;;;;;;;20.70;92.50;;;;;;5071224;28;20294;-77
2023/05/01 14:06:29;;;;;;;;;;;20.70;92.90;;;;;;5064907;28;20282;-76
2023/05/01 14:08:56;;;;;;;;;;;20.60;92.40;;;;;;5070133;28;19916;-76
2023/05/01 14:11:22;;;;;;;;;;;20.50;92.80;;;;;;5067381;28;20344;-76
2023/05/01 14:13:49;;;;;;;;;;;20.30;92.70;;;;;;5059430;28;19969;-77
2023/05/01 14:16:21;;;;;;;;;;;20.20;93.20;;;;;;5054092;28;20293;-77
2023/05/01 14:18:47;;;;;;;;;;;20.20;92.80;;;;;;5068897;28;20014;-76
2023/05/01 14:21:17;;;;;;;;;;;20.10;92.90;;;;;;5060948;28;19974;-77
2023/05/01 14:23:43;;;;;;;;;;;20.10;93.20;;;;;;5051453;28;19921;-76